sensor_id;sensor_type;location;lat;lon;timestamp;P1;durP1;ratioP1;P2;durP2;ratioP2
32932;SDS011;19444;50.518;10.870;2022-08-04T00:02:30;3.47;;;3.17;;
32932;SDS011;19444;50.518;10.870;2022-08-04T00:06:13;5.45;;;3.50;;
32932;SDS011;19444;50.518;10.870;2022-08-04T00:12:31;4.13;;;3.03;;
32932;SDS011;19444;50.518;10.870;2022-08-04T00:15:34;3.75;;;3.00;;
32932;SDS011;19444;50.518;10.870;2022-08-04T00:18:34;3.38;;;3.08;;
32932;SDS011;19444;50.518;10.870;2022-08-04T00:21:41;4.03;;;3.17;;
32932;SDS011;19444;50.518;10.870;2022-08-04T00:24:50;4.32;;;3.42;;
32932;SDS011;19444;50.518;10.870;2022-08-04T00:27:47;3.70;;;3.40;;
32932;SDS011;19444;50.518;10.870;2022-08-04T00:30:45;3.60;;;3.33;;
32932;SDS011;19444;50.518;10.870;2022-08-04T00:33:42;3.65;;;3.00;;
32932;SDS011;19444;50.518;10.870;2022-08-04T00:36:41;3.42;;;3.05;;
32932;SDS011;19444;50.518;10.870;2022-08-04T00:39:39;3.45;;;3.15;;
32932;SDS011;19444;50.518;10.870;2022-08-04T00:42:42;4.35;;;3.30;;
32932;SDS011;19444;50.518;10.870;2022-08-04T00:53:02;4.30;;;3.25;;
32932;SDS011;19444;50.518;10.870;2022-08-04T01:00:03;3.95;;;3.40;;
32932;SDS011;19444;50.518;10.870;2022-08-04T01:13:25;4.00;;;3.08;;
32932;SDS011;19444;50.518;10.870;2022-08-04T01:16:51;4.97;;;3.65;;
32932;SDS011;19444;50.518;10.870;2022-08-04T01:20:06;4.05;;;3.45;;
32932;SDS011;19444;50.518;10.870;2022-08-04T01:23:18;3.60;;;3.30;;
32932;SDS011;19444;50.518;10.870;2022-08-04T01:26:42;3.65;;;3.17;;
32932;SDS011;19444;50.518;10.870;2022-08-04T01:30:08;4.55;;;3.47;;
32932;SDS011;19444;50.518;10.870;2022-08-04T01:33:07;4.00;;;2.95;;
32932;SDS011;19444;50.518;10.870;2022-08-04T01:36:08;3.60;;;3.30;;
32932;SDS011;19444;50.518;10.870;2022-08-04T01:39:06;5.82;;;2.97;;
32932;SDS011;19444;50.518;10.870;2022-08-04T01:42:23;3.95;;;3.53;;
32932;SDS011;19444;50.518;10.870;2022-08-04T01:45:27;4.22;;;3.30;;
32932;SDS011;19444;50.518;10.870;2022-08-04T01:48:26;3.85;;;3.33;;
32932;SDS011;19444;50.518;10.870;2022-08-04T01:51:24;5.25;;;3.85;;
32932;SDS011;19444;50.518;10.870;2022-08-04T01:54:21;4.93;;;3.28;;
32932;SDS011;19444;50.518;10.870;2022-08-04T01:57:20;4.40;;;3.65;;
32932;SDS011;19444;50.518;10.870;2022-08-04T02:00:34;3.72;;;2.80;;
32932;SDS011;19444;50.518;10.870;2022-08-04T02:03:44;3.60;;;3.30;;
32932;SDS011;19444;50.518;10.870;2022-08-04T02:07:05;3.08;;;2.72;;
32932;SDS011;19444;50.518;10.870;2022-08-04T02:10:29;3.60;;;3.30;;
32932;SDS011;19444;50.518;10.870;2022-08-04T02:14:27;3.70;;;3.40;;
32932;SDS011;19444;50.518;10.870;2022-08-04T02:20:39;3.35;;;3.05;;
32932;SDS011;19444;50.518;10.870;2022-08-04T02:23:41;4.18;;;3.40;;
32932;SDS011;19444;50.518;10.870;2022-08-04T02:30:17;3.42;;;3.13;;
32932;SDS011;19444;50.518;10.870;2022-08-04T02:33:07;3.92;;;3.63;;
32932;SDS011;19444;50.518;10.870;2022-08-04T02:36:09;3.65;;;3.20;;
32932;SDS011;19444;50.518;10.870;2022-08-04T02:39:18;4.20;;;3.28;;
32932;SDS011;19444;50.518;10.870;2022-08-04T02:42:16;3.80;;;3.40;;
32932;SDS011;19444;50.518;10.870;2022-08-04T02:45:14;3.60;;;3.28;;
32932;SDS011;19444;50.518;10.870;2022-08-04T02:48:14;4.13;;;3.63;;
32932;SDS011;19444;50.518;10.870;2022-08-04T02:51:27;3.58;;;3.28;;
32932;SDS011;19444;50.518;10.870;2022-08-04T02:54:52;3.50;;;3.20;;
32932;SDS011;19444;50.518;10.870;2022-08-04T02:57:52;5.70;;;3.28;;
32932;SDS011;19444;50.518;10.870;2022-08-04T03:00:51;4.10;;;3.72;;
32932;SDS011;19444;50.518;10.870;2022-08-04T03:22:17;5.75;;;3.85;;
32932;SDS011;19444;50.518;10.870;2022-08-04T03:26:07;4.32;;;3.92;;
32932;SDS011;19444;50.518;10.870;2022-08-04T03:43:28;3.80;;;3.40;;
32932;SDS011;19444;50.518;10.870;2022-08-04T03:54:55;3.80;;;3.50;;
32932;SDS011;19444;50.518;10.870;2022-08-04T04:02:20;4.32;;;3.45;;
32932;SDS011;19444;50.518;10.870;2022-08-04T04:05:42;4.10;;;3.60;;
32932;SDS011;19444;50.518;10.870;2022-08-04T04:09:37;4.38;;;3.97;;
32932;SDS011;19444;50.518;10.870;2022-08-04T04:27:08;3.80;;;3.50;;
32932;SDS011;19444;50.518;10.870;2022-08-04T04:33:51;4.22;;;3.45;;
32932;SDS011;19444;50.518;10.870;2022-08-04T04:54:44;3.83;;;3.05;;
32932;SDS011;19444;50.518;10.870;2022-08-04T04:57:47;3.75;;;3.13;;
32932;SDS011;19444;50.518;10.870;2022-08-04T05:15:27;3.33;;;2.60;;
32932;SDS011;19444;50.518;10.870;2022-08-04T05:18:29;4.22;;;2.85;;
32932;SDS011;19444;50.518;10.870;2022-08-04T05:21:46;4.10;;;2.55;;
32932;SDS011;19444;50.518;10.870;2022-08-04T05:25:00;4.70;;;2.72;;
32932;SDS011;19444;50.518;10.870;2022-08-04T05:31:42;5.00;;;2.80;;
32932;SDS011;19444;50.518;10.870;2022-08-04T05:34:48;5.55;;;3.15;;
32932;SDS011;19444;50.518;10.870;2022-08-04T05:37:55;3.30;;;2.75;;
32932;SDS011;19444;50.518;10.870;2022-08-04T05:40:56;3.15;;;2.83;;
32932;SDS011;19444;50.518;10.870;2022-08-04T05:43:54;4.43;;;3.03;;
32932;SDS011;19444;50.518;10.870;2022-08-04T05:46:56;3.15;;;2.75;;
32932;SDS011;19444;50.518;10.870;2022-08-04T05:49:55;3.40;;;3.10;;
32932;SDS011;19444;50.518;10.870;2022-08-04T05:52:57;3.28;;;2.97;;
32932;SDS011;19444;50.518;10.870;2022-08-04T05:55:56;3.80;;;3.25;;
32932;SDS011;19444;50.518;10.870;2022-08-04T05:58:55;3.88;;;2.65;;
32932;SDS011;19444;50.518;10.870;2022-08-04T06:01:54;4.45;;;2.80;;
32932;SDS011;19444;50.518;10.870;2022-08-04T06:04:53;4.88;;;2.70;;
32932;SDS011;19444;50.518;10.870;2022-08-04T06:07:52;4.70;;;2.78;;
32932;SDS011;19444;50.518;10.870;2022-08-04T06:11:08;3.15;;;2.85;;
32932;SDS011;19444;50.518;10.870;2022-08-04T06:14:07;2.50;;;2.30;;
32932;SDS011;19444;50.518;10.870;2022-08-04T06:17:08;3.45;;;2.83;;
32932;SDS011;19444;50.518;10.870;2022-08-04T06:20:29;4.95;;;3.30;;
32932;SDS011;19444;50.518;10.870;2022-08-04T06:23:32;3.00;;;2.70;;
32932;SDS011;19444;50.518;10.870;2022-08-04T06:26:48;3.15;;;2.78;;
32932;SDS011;19444;50.518;10.870;2022-08-04T06:29:48;3.53;;;2.65;;
32932;SDS011;19444;50.518;10.870;2022-08-04T06:32:47;3.83;;;2.42;;
32932;SDS011;19444;50.518;10.870;2022-08-04T06:36:00;2.70;;;2.50;;
32932;SDS011;19444;50.518;10.870;2022-08-04T06:39:02;3.35;;;2.40;;
32932;SDS011;19444;50.518;10.870;2022-08-04T06:42:00;3.53;;;2.20;;
32932;SDS011;19444;50.518;10.870;2022-08-04T06:45:18;2.58;;;2.38;;
32932;SDS011;19444;50.518;10.870;2022-08-04T06:48:16;2.35;;;2.10;;
32932;SDS011;19444;50.518;10.870;2022-08-04T06:51:17;2.92;;;1.92;;
32932;SDS011;19444;50.518;10.870;2022-08-04T06:54:28;2.38;;;2.10;;
32932;SDS011;19444;50.518;10.870;2022-08-04T06:57:26;3.60;;;2.10;;
32932;SDS011;19444;50.518;10.870;2022-08-04T07:00:24;2.15;;;1.90;;
32932;SDS011;19444;50.518;10.870;2022-08-04T07:03:22;2.40;;;1.70;;
32932;SDS011;19444;50.518;10.870;2022-08-04T07:06:20;2.63;;;1.70;;
32932;SDS011;19444;50.518;10.870;2022-08-04T07:09:18;2.35;;;1.48;;
32932;SDS011;19444;50.518;10.870;2022-08-04T07:12:15;2.42;;;1.50;;
32932;SDS011;19444;50.518;10.870;2022-08-04T07:15:16;1.80;;;1.50;;
32932;SDS011;19444;50.518;10.870;2022-08-04T07:18:14;1.90;;;1.38;;
32932;SDS011;19444;50.518;10.870;2022-08-04T07:21:21;2.10;;;1.65;;
32932;SDS011;19444;50.518;10.870;2022-08-04T07:24:18;3.20;;;1.60;;
32932;SDS011;19444;50.518;10.870;2022-08-04T07:27:15;3.00;;;1.80;;
32932;SDS011;19444;50.518;10.870;2022-08-04T07:30:32;2.80;;;1.40;;
32932;SDS011;19444;50.518;10.870;2022-08-04T07:33:32;1.80;;;1.30;;
32932;SDS011;19444;50.518;10.870;2022-08-04T07:36:29;2.47;;;1.45;;
32932;SDS011;19444;50.518;10.870;2022-08-04T07:39:45;3.03;;;1.60;;
32932;SDS011;19444;50.518;10.870;2022-08-04T07:42:43;1.95;;;1.25;;
32932;SDS011;19444;50.518;10.870;2022-08-04T07:45:41;3.60;;;1.45;;
32932;SDS011;19444;50.518;10.870;2022-08-04T07:48:39;1.88;;;1.25;;
32932;SDS011;19444;50.518;10.870;2022-08-04T07:51:36;2.20;;;1.50;;
32932;SDS011;19444;50.518;10.870;2022-08-04T07:54:33;2.13;;;1.50;;
32932;SDS011;19444;50.518;10.870;2022-08-04T07:57:31;3.00;;;2.13;;
32932;SDS011;19444;50.518;10.870;2022-08-04T08:00:37;2.85;;;1.40;;
32932;SDS011;19444;50.518;10.870;2022-08-04T08:03:34;2.63;;;1.50;;
32932;SDS011;19444;50.518;10.870;2022-08-04T08:06:34;1.70;;;1.23;;
32932;SDS011;19444;50.518;10.870;2022-08-04T08:09:38;1.92;;;1.50;;
32932;SDS011;19444;50.518;10.870;2022-08-04T08:12:35;3.40;;;1.60;;
32932;SDS011;19444;50.518;10.870;2022-08-04T08:15:47;2.20;;;1.63;;
32932;SDS011;19444;50.518;10.870;2022-08-04T08:18:44;2.03;;;1.70;;
32932;SDS011;19444;50.518;10.870;2022-08-04T08:21:46;3.65;;;1.13;;
32932;SDS011;19444;50.518;10.870;2022-08-04T08:24:55;3.42;;;1.50;;
32932;SDS011;19444;50.518;10.870;2022-08-04T08:27:52;2.35;;;1.30;;
32932;SDS011;19444;50.518;10.870;2022-08-04T08:30:51;2.72;;;1.30;;
32932;SDS011;19444;50.518;10.870;2022-08-04T08:33:49;4.43;;;1.20;;
32932;SDS011;19444;50.518;10.870;2022-08-04T08:36:48;2.13;;;1.30;;
32932;SDS011;19444;50.518;10.870;2022-08-04T08:47:03;1.65;;;1.30;;
32932;SDS011;19444;50.518;10.870;2022-08-04T08:51:03;1.63;;;1.45;;
32932;SDS011;19444;50.518;10.870;2022-08-04T09:12:06;2.22;;;1.20;;
32932;SDS011;19444;50.518;10.870;2022-08-04T09:15:38;1.67;;;1.30;;
32932;SDS011;19444;50.518;10.870;2022-08-04T09:21:59;1.92;;;1.50;;
32932;SDS011;19444;50.518;10.870;2022-08-04T09:25:22;1.45;;;1.13;;
32932;SDS011;19444;50.518;10.870;2022-08-04T09:28:26;1.73;;;1.27;;
32932;SDS011;19444;50.518;10.870;2022-08-04T09:35:21;2.22;;;1.50;;
32932;SDS011;19444;50.518;10.870;2022-08-04T09:38:41;1.70;;;1.23;;
32932;SDS011;19444;50.518;10.870;2022-08-04T09:42:11;1.55;;;1.13;;
32932;SDS011;19444;50.518;10.870;2022-08-04T09:48:52;1.63;;;1.40;;
32932;SDS011;19444;50.518;10.870;2022-08-04T09:55:30;2.22;;;1.67;;
32932;SDS011;19444;50.518;10.870;2022-08-04T10:02:19;2.42;;;1.60;;
32932;SDS011;19444;50.518;10.870;2022-08-04T10:12:51;3.63;;;1.80;;
32932;SDS011;19444;50.518;10.870;2022-08-04T10:19:22;4.28;;;3.50;;
32932;SDS011;19444;50.518;10.870;2022-08-04T10:33:04;2.92;;;1.50;;
32932;SDS011;19444;50.518;10.870;2022-08-04T10:36:14;4.82;;;1.38;;
32932;SDS011;19444;50.518;10.870;2022-08-04T10:39:17;2.00;;;1.70;;
32932;SDS011;19444;50.518;10.870;2022-08-04T10:42:39;1.98;;;1.67;;
32932;SDS011;19444;50.518;10.870;2022-08-04T10:45:55;2.30;;;1.58;;
32932;SDS011;19444;50.518;10.870;2022-08-04T10:49:06;2.75;;;1.63;;
32932;SDS011;19444;50.518;10.870;2022-08-04T10:52:18;2.25;;;1.90;;
32932;SDS011;19444;50.518;10.870;2022-08-04T10:59:06;2.28;;;1.48;;
32932;SDS011;19444;50.518;10.870;2022-08-04T11:08:58;2.58;;;1.80;;
32932;SDS011;19444;50.518;10.870;2022-08-04T11:12:15;2.38;;;2.00;;
32932;SDS011;19444;50.518;10.870;2022-08-04T11:15:19;4.10;;;1.95;;
32932;SDS011;19444;50.518;10.870;2022-08-04T11:18:28;2.22;;;1.35;;
32932;SDS011;19444;50.518;10.870;2022-08-04T11:21:38;3.40;;;1.77;;
32932;SDS011;19444;50.518;10.870;2022-08-04T11:24:53;1.63;;;1.38;;
32932;SDS011;19444;50.518;10.870;2022-08-04T11:28:28;3.08;;;1.55;;
32932;SDS011;19444;50.518;10.870;2022-08-04T11:32:00;1.45;;;1.35;;
32932;SDS011;19444;50.518;10.870;2022-08-04T11:35:01;3.58;;;1.85;;
32932;SDS011;19444;50.518;10.870;2022-08-04T11:38:09;2.55;;;1.67;;
32932;SDS011;19444;50.518;10.870;2022-08-04T11:41:30;1.92;;;1.73;;
32932;SDS011;19444;50.518;10.870;2022-08-04T11:44:55;2.50;;;1.50;;
32932;SDS011;19444;50.518;10.870;2022-08-04T11:48:15;2.05;;;1.83;;
32932;SDS011;19444;50.518;10.870;2022-08-04T11:51:28;3.92;;;1.70;;
32932;SDS011;19444;50.518;10.870;2022-08-04T11:54:27;1.65;;;1.48;;
32932;SDS011;19444;50.518;10.870;2022-08-04T11:57:25;2.10;;;1.90;;
32932;SDS011;19444;50.518;10.870;2022-08-04T12:00:31;2.55;;;1.50;;
32932;SDS011;19444;50.518;10.870;2022-08-04T12:03:33;2.13;;;1.33;;
32932;SDS011;19444;50.518;10.870;2022-08-04T12:07:08;2.05;;;1.85;;
32932;SDS011;19444;50.518;10.870;2022-08-04T12:21:06;2.22;;;1.02;;
32932;SDS011;19444;50.518;10.870;2022-08-04T12:24:17;4.80;;;1.98;;
32932;SDS011;19444;50.518;10.870;2022-08-04T12:27:26;1.60;;;1.42;;
32932;SDS011;19444;50.518;10.870;2022-08-04T12:30:33;3.63;;;1.60;;
32932;SDS011;19444;50.518;10.870;2022-08-04T12:34:16;2.22;;;1.48;;
32932;SDS011;19444;50.518;10.870;2022-08-04T12:40:54;3.45;;;1.83;;
32932;SDS011;19444;50.518;10.870;2022-08-04T12:43:54;1.60;;;1.42;;
32932;SDS011;19444;50.518;10.870;2022-08-04T12:47:23;2.08;;;1.35;;
32932;SDS011;19444;50.518;10.870;2022-08-04T12:50:24;1.80;;;1.48;;
32932;SDS011;19444;50.518;10.870;2022-08-04T12:53:31;1.50;;;1.38;;
32932;SDS011;19444;50.518;10.870;2022-08-04T12:56:46;2.53;;;1.50;;
32932;SDS011;19444;50.518;10.870;2022-08-04T12:59:44;3.03;;;1.42;;
32932;SDS011;19444;50.518;10.870;2022-08-04T13:02:53;1.27;;;1.17;;
32932;SDS011;19444;50.518;10.870;2022-08-04T13:05:59;1.38;;;1.27;;
32932;SDS011;19444;50.518;10.870;2022-08-04T13:09:16;1.48;;;1.38;;
32932;SDS011;19444;50.518;10.870;2022-08-04T13:12:25;1.25;;;1.15;;
32932;SDS011;19444;50.518;10.870;2022-08-04T13:15:28;1.50;;;1.40;;
32932;SDS011;19444;50.518;10.870;2022-08-04T13:18:29;1.48;;;1.38;;
32932;SDS011;19444;50.518;10.870;2022-08-04T13:21:31;1.95;;;1.27;;
32932;SDS011;19444;50.518;10.870;2022-08-04T13:24:50;1.92;;;1.42;;
32932;SDS011;19444;50.518;10.870;2022-08-04T13:28:12;1.50;;;1.10;;
32932;SDS011;19444;50.518;10.870;2022-08-04T13:31:21;2.30;;;1.38;;
32932;SDS011;19444;50.518;10.870;2022-08-04T13:34:31;1.67;;;1.35;;
32932;SDS011;19444;50.518;10.870;2022-08-04T13:37:31;2.50;;;1.55;;
32932;SDS011;19444;50.518;10.870;2022-08-04T13:40:31;1.90;;;1.70;;
32932;SDS011;19444;50.518;10.870;2022-08-04T13:43:32;2.28;;;1.48;;
32932;SDS011;19444;50.518;10.870;2022-08-04T13:47:00;1.73;;;1.50;;
32932;SDS011;19444;50.518;10.870;2022-08-04T13:50:09;1.55;;;1.45;;
32932;SDS011;19444;50.518;10.870;2022-08-04T13:53:18;2.78;;;1.98;;
32932;SDS011;19444;50.518;10.870;2022-08-04T13:56:17;2.05;;;1.60;;
32932;SDS011;19444;50.518;10.870;2022-08-04T13:59:14;1.60;;;1.50;;
32932;SDS011;19444;50.518;10.870;2022-08-04T14:02:48;3.20;;;1.90;;
32932;SDS011;19444;50.518;10.870;2022-08-04T14:05:44;2.15;;;1.60;;
32932;SDS011;19444;50.518;10.870;2022-08-04T14:09:01;2.70;;;1.50;;
32932;SDS011;19444;50.518;10.870;2022-08-04T14:12:30;1.77;;;1.67;;
32932;SDS011;19444;50.518;10.870;2022-08-04T14:15:42;1.80;;;1.60;;
32932;SDS011;19444;50.518;10.870;2022-08-04T14:18:59;1.63;;;1.40;;
32932;SDS011;19444;50.518;10.870;2022-08-04T14:21:57;1.98;;;1.50;;
32932;SDS011;19444;50.518;10.870;2022-08-04T14:24:57;2.45;;;1.60;;
32932;SDS011;19444;50.518;10.870;2022-08-04T14:28:11;1.60;;;1.50;;
32932;SDS011;19444;50.518;10.870;2022-08-04T14:31:09;1.73;;;1.27;;
32932;SDS011;19444;50.518;10.870;2022-08-04T14:34:26;1.73;;;1.38;;
32932;SDS011;19444;50.518;10.870;2022-08-04T14:37:25;1.77;;;1.63;;
32932;SDS011;19444;50.518;10.870;2022-08-04T14:40:41;1.98;;;1.48;;
32932;SDS011;19444;50.518;10.870;2022-08-04T14:43:56;2.30;;;1.63;;
32932;SDS011;19444;50.518;10.870;2022-08-04T14:46:57;1.60;;;1.50;;
32932;SDS011;19444;50.518;10.870;2022-08-04T14:49:54;1.83;;;1.13;;
32932;SDS011;19444;50.518;10.870;2022-08-04T14:52:51;6.00;;;1.75;;
32932;SDS011;19444;50.518;10.870;2022-08-04T14:55:59;2.30;;;1.33;;
32932;SDS011;19444;50.518;10.870;2022-08-04T14:58:57;2.67;;;1.70;;
32932;SDS011;19444;50.518;10.870;2022-08-04T15:01:58;1.50;;;1.40;;
32932;SDS011;19444;50.518;10.870;2022-08-04T15:04:57;2.85;;;1.75;;
32932;SDS011;19444;50.518;10.870;2022-08-04T15:08:15;3.80;;;1.77;;
32932;SDS011;19444;50.518;10.870;2022-08-04T15:11:12;3.08;;;1.83;;
32932;SDS011;19444;50.518;10.870;2022-08-04T15:14:19;1.48;;;1.30;;
32932;SDS011;19444;50.518;10.870;2022-08-04T15:17:33;3.13;;;2.08;;
32932;SDS011;19444;50.518;10.870;2022-08-04T15:20:30;1.50;;;1.40;;
32932;SDS011;19444;50.518;10.870;2022-08-04T15:23:27;5.93;;;1.80;;
32932;SDS011;19444;50.518;10.870;2022-08-04T15:26:42;1.38;;;1.27;;
32932;SDS011;19444;50.518;10.870;2022-08-04T15:29:46;1.63;;;1.52;;
32932;SDS011;19444;50.518;10.870;2022-08-04T15:32:57;2.15;;;1.50;;
32932;SDS011;19444;50.518;10.870;2022-08-04T15:36:59;1.80;;;1.48;;
32932;SDS011;19444;50.518;10.870;2022-08-04T15:39:58;1.83;;;1.38;;
32932;SDS011;19444;50.518;10.870;2022-08-04T15:49:43;2.78;;;1.35;;
32932;SDS011;19444;50.518;10.870;2022-08-04T16:02:57;1.58;;;1.40;;
32932;SDS011;19444;50.518;10.870;2022-08-04T16:05:54;2.60;;;1.40;;
32932;SDS011;19444;50.518;10.870;2022-08-04T16:11:53;3.33;;;1.98;;
32932;SDS011;19444;50.518;10.870;2022-08-04T16:14:50;2.60;;;1.77;;
32932;SDS011;19444;50.518;10.870;2022-08-04T16:17:47;2.17;;;1.90;;
32932;SDS011;19444;50.518;10.870;2022-08-04T16:20:44;2.13;;;1.40;;
32932;SDS011;19444;50.518;10.870;2022-08-04T16:23:54;2.53;;;1.40;;
32932;SDS011;19444;50.518;10.870;2022-08-04T16:27:02;3.13;;;1.70;;
32932;SDS011;19444;50.518;10.870;2022-08-04T16:30:08;1.65;;;1.50;;
32932;SDS011;19444;50.518;10.870;2022-08-04T16:33:10;2.67;;;1.80;;
32932;SDS011;19444;50.518;10.870;2022-08-04T16:36:07;2.88;;;1.52;;
32932;SDS011;19444;50.518;10.870;2022-08-04T16:39:12;3.85;;;1.95;;
32932;SDS011;19444;50.518;10.870;2022-08-04T16:45:38;1.80;;;1.70;;
32932;SDS011;19444;50.518;10.870;2022-08-04T16:48:42;3.05;;;1.40;;
32932;SDS011;19444;50.518;10.870;2022-08-04T16:52:03;2.10;;;1.90;;
32932;SDS011;19444;50.518;10.870;2022-08-04T16:55:08;3.00;;;1.85;;
32932;SDS011;19444;50.518;10.870;2022-08-04T16:58:05;1.80;;;1.70;;
32932;SDS011;19444;50.518;10.870;2022-08-04T17:01:06;3.35;;;1.90;;
32932;SDS011;19444;50.518;10.870;2022-08-04T17:04:17;2.55;;;1.60;;
32932;SDS011;19444;50.518;10.870;2022-08-04T17:07:23;3.92;;;1.90;;
32932;SDS011;19444;50.518;10.870;2022-08-04T17:10:30;2.45;;;1.75;;
32932;SDS011;19444;50.518;10.870;2022-08-04T17:13:45;3.08;;;1.88;;
32932;SDS011;19444;50.518;10.870;2022-08-04T17:17:00;3.33;;;1.50;;
32932;SDS011;19444;50.518;10.870;2022-08-04T17:20:04;3.10;;;1.92;;
32932;SDS011;19444;50.518;10.870;2022-08-04T17:23:21;3.03;;;1.55;;
32932;SDS011;19444;50.518;10.870;2022-08-04T17:26:44;3.05;;;1.98;;
32932;SDS011;19444;50.518;10.870;2022-08-04T17:29:49;4.57;;;1.63;;
32932;SDS011;19444;50.518;10.870;2022-08-04T17:32:47;2.13;;;1.90;;
32932;SDS011;19444;50.518;10.870;2022-08-04T17:35:46;2.28;;;1.83;;
32932;SDS011;19444;50.518;10.870;2022-08-04T17:38:49;3.30;;;2.22;;
32932;SDS011;19444;50.518;10.870;2022-08-04T17:41:54;2.13;;;1.90;;
32932;SDS011;19444;50.518;10.870;2022-08-04T17:44:52;3.90;;;1.95;;
32932;SDS011;19444;50.518;10.870;2022-08-04T17:48:32;3.40;;;1.83;;
32932;SDS011;19444;50.518;10.870;2022-08-04T17:55:04;6.22;;;2.50;;
32932;SDS011;19444;50.518;10.870;2022-08-04T17:58:12;5.07;;;2.55;;
32932;SDS011;19444;50.518;10.870;2022-08-04T18:01:17;4.28;;;3.90;;
32932;SDS011;19444;50.518;10.870;2022-08-04T18:04:21;4.50;;;3.53;;
32932;SDS011;19444;50.518;10.870;2022-08-04T18:07:33;5.95;;;3.00;;
32932;SDS011;19444;50.518;10.870;2022-08-04T18:10:53;4.75;;;2.70;;
32932;SDS011;19444;50.518;10.870;2022-08-04T18:13:52;5.15;;;2.83;;
32932;SDS011;19444;50.518;10.870;2022-08-04T18:16:52;4.38;;;2.55;;
32932;SDS011;19444;50.518;10.870;2022-08-04T18:19:51;3.90;;;2.10;;
32932;SDS011;19444;50.518;10.870;2022-08-04T18:22:50;4.57;;;2.30;;
32932;SDS011;19444;50.518;10.870;2022-08-04T18:25:49;2.85;;;2.10;;
32932;SDS011;19444;50.518;10.870;2022-08-04T18:28:47;3.10;;;2.55;;
32932;SDS011;19444;50.518;10.870;2022-08-04T18:31:44;4.60;;;2.65;;
32932;SDS011;19444;50.518;10.870;2022-08-04T18:34:44;2.80;;;2.22;;
32932;SDS011;19444;50.518;10.870;2022-08-04T18:37:50;2.60;;;2.35;;
32932;SDS011;19444;50.518;10.870;2022-08-04T18:41:07;2.70;;;2.50;;
32932;SDS011;19444;50.518;10.870;2022-08-04T18:44:04;3.67;;;2.40;;
32932;SDS011;19444;50.518;10.870;2022-08-04T18:47:03;4.43;;;2.80;;
32932;SDS011;19444;50.518;10.870;2022-08-04T18:50:18;2.85;;;2.20;;
32932;SDS011;19444;50.518;10.870;2022-08-04T18:53:35;3.08;;;2.53;;
32932;SDS011;19444;50.518;10.870;2022-08-04T18:56:32;6.13;;;2.70;;
32932;SDS011;19444;50.518;10.870;2022-08-04T18:59:31;4.40;;;2.97;;
32932;SDS011;19444;50.518;10.870;2022-08-04T19:02:28;2.88;;;2.50;;
32932;SDS011;19444;50.518;10.870;2022-08-04T19:05:25;3.55;;;2.45;;
32932;SDS011;19444;50.518;10.870;2022-08-04T19:08:33;3.60;;;2.47;;
32932;SDS011;19444;50.518;10.870;2022-08-04T19:11:37;2.85;;;2.60;;
32932;SDS011;19444;50.518;10.870;2022-08-04T19:14:50;3.60;;;2.50;;
32932;SDS011;19444;50.518;10.870;2022-08-04T19:17:54;3.65;;;2.63;;
32932;SDS011;19444;50.518;10.870;2022-08-04T19:20:55;3.30;;;2.75;;
32932;SDS011;19444;50.518;10.870;2022-08-04T19:23:52;2.53;;;2.33;;
32932;SDS011;19444;50.518;10.870;2022-08-04T19:27:09;2.70;;;2.50;;
32932;SDS011;19444;50.518;10.870;2022-08-04T19:30:07;3.03;;;2.60;;
32932;SDS011;19444;50.518;10.870;2022-08-04T19:33:06;3.00;;;2.55;;
32932;SDS011;19444;50.518;10.870;2022-08-04T19:36:04;5.07;;;2.60;;
32932;SDS011;19444;50.518;10.870;2022-08-04T19:39:03;3.28;;;2.97;;
32932;SDS011;19444;50.518;10.870;2022-08-04T19:42:06;4.72;;;2.67;;
32932;SDS011;19444;50.518;10.870;2022-08-04T19:48:26;3.10;;;2.78;;
32932;SDS011;19444;50.518;10.870;2022-08-04T19:51:26;3.15;;;2.85;;
32932;SDS011;19444;50.518;10.870;2022-08-04T19:54:26;2.90;;;2.65;;
32932;SDS011;19444;50.518;10.870;2022-08-04T19:57:24;3.28;;;2.70;;
32932;SDS011;19444;50.518;10.870;2022-08-04T20:00:31;3.85;;;3.15;;
32932;SDS011;19444;50.518;10.870;2022-08-04T20:03:29;2.92;;;2.72;;
32932;SDS011;19444;50.518;10.870;2022-08-04T20:06:46;3.38;;;3.08;;
32932;SDS011;19444;50.518;10.870;2022-08-04T20:09:45;3.65;;;3.03;;
32932;SDS011;19444;50.518;10.870;2022-08-04T20:12:49;4.70;;;3.33;;
32932;SDS011;19444;50.518;10.870;2022-08-04T20:15:51;2.90;;;2.63;;
32932;SDS011;19444;50.518;10.870;2022-08-04T20:18:53;3.10;;;2.78;;
32932;SDS011;19444;50.518;10.870;2022-08-04T20:21:58;3.30;;;3.00;;
32932;SDS011;19444;50.518;10.870;2022-08-04T20:24:57;3.60;;;3.30;;
32932;SDS011;19444;50.518;10.870;2022-08-04T20:28:14;4.32;;;3.70;;
32932;SDS011;19444;50.518;10.870;2022-08-04T20:31:31;4.03;;;3.13;;
32932;SDS011;19444;50.518;10.870;2022-08-04T20:34:38;4.25;;;3.60;;
32932;SDS011;19444;50.518;10.870;2022-08-04T20:37:39;3.83;;;3.47;;
32932;SDS011;19444;50.518;10.870;2022-08-04T20:40:56;4.13;;;2.93;;
32932;SDS011;19444;50.518;10.870;2022-08-04T20:43:56;3.85;;;3.55;;
32932;SDS011;19444;50.518;10.870;2022-08-04T20:46:53;3.83;;;3.53;;
32932;SDS011;19444;50.518;10.870;2022-08-04T20:49:50;3.75;;;3.28;;
32932;SDS011;19444;50.518;10.870;2022-08-04T20:52:48;4.13;;;3.70;;
32932;SDS011;19444;50.518;10.870;2022-08-04T20:55:47;3.90;;;3.47;;
32932;SDS011;19444;50.518;10.870;2022-08-04T20:59:04;4.00;;;3.70;;
32932;SDS011;19444;50.518;10.870;2022-08-04T21:02:03;3.78;;;3.47;;
32932;SDS011;19444;50.518;10.870;2022-08-04T21:05:11;3.78;;;3.38;;
32932;SDS011;19444;50.518;10.870;2022-08-04T21:08:08;3.80;;;3.15;;
32932;SDS011;19444;50.518;10.870;2022-08-04T21:11:05;3.95;;;3.28;;
32932;SDS011;19444;50.518;10.870;2022-08-04T21:14:04;3.60;;;3.28;;
32932;SDS011;19444;50.518;10.870;2022-08-04T21:17:01;4.18;;;3.63;;
32932;SDS011;19444;50.518;10.870;2022-08-04T21:19:59;4.28;;;3.88;;
32932;SDS011;19444;50.518;10.870;2022-08-04T21:22:55;4.20;;;3.35;;
32932;SDS011;19444;50.518;10.870;2022-08-04T21:26:00;4.20;;;3.55;;
32932;SDS011;19444;50.518;10.870;2022-08-04T21:28:58;6.07;;;3.42;;
32932;SDS011;19444;50.518;10.870;2022-08-04T21:31:55;3.97;;;3.33;;
32932;SDS011;19444;50.518;10.870;2022-08-04T21:34:52;3.85;;;3.55;;
32932;SDS011;19444;50.518;10.870;2022-08-04T21:37:49;4.22;;;3.90;;
32932;SDS011;19444;50.518;10.870;2022-08-04T21:40:52;4.72;;;3.60;;
32932;SDS011;19444;50.518;10.870;2022-08-04T21:43:50;4.07;;;3.58;;
32932;SDS011;19444;50.518;10.870;2022-08-04T21:46:48;4.40;;;3.95;;
32932;SDS011;19444;50.518;10.870;2022-08-04T21:49:46;4.70;;;3.58;;
32932;SDS011;19444;50.518;10.870;2022-08-04T21:52:52;3.75;;;3.42;;
32932;SDS011;19444;50.518;10.870;2022-08-04T21:55:50;3.47;;;3.17;;
32932;SDS011;19444;50.518;10.870;2022-08-04T21:59:02;4.20;;;3.80;;
32932;SDS011;19444;50.518;10.870;2022-08-04T22:02:06;3.75;;;3.30;;
32932;SDS011;19444;50.518;10.870;2022-08-04T22:05:03;4.43;;;4.03;;
32932;SDS011;19444;50.518;10.870;2022-08-04T22:08:03;3.92;;;3.33;;
32932;SDS011;19444;50.518;10.870;2022-08-04T22:11:00;3.80;;;3.50;;
32932;SDS011;19444;50.518;10.870;2022-08-04T22:17:06;4.00;;;3.47;;
32932;SDS011;19444;50.518;10.870;2022-08-04T22:20:13;3.72;;;3.42;;
32932;SDS011;19444;50.518;10.870;2022-08-04T22:23:23;4.22;;;3.50;;
32932;SDS011;19444;50.518;10.870;2022-08-04T22:26:21;3.60;;;3.30;;
32932;SDS011;19444;50.518;10.870;2022-08-04T22:29:22;6.10;;;3.92;;
32932;SDS011;19444;50.518;10.870;2022-08-04T22:32:19;4.07;;;3.47;;
32932;SDS011;19444;50.518;10.870;2022-08-04T22:35:16;3.50;;;3.20;;
32932;SDS011;19444;50.518;10.870;2022-08-04T22:38:35;3.75;;;3.45;;